createdAt,value
2022-08-14T00:01:32.977Z,52.53
2022-08-14T00:03:59.869Z,52.66
2022-08-14T00:06:29.060Z,52.64
2022-08-14T00:08:59.271Z,52.55
2022-08-14T00:11:32.209Z,51.78
2022-08-14T00:14:02.202Z,51.31
2022-08-14T00:16:41.590Z,51.41
2022-08-14T00:19:19.497Z,51.25
2022-08-14T00:21:52.193Z,51.83
2022-08-14T00:24:22.879Z,51.84
2022-08-14T00:27:02.427Z,52.38
2022-08-14T00:29:33.251Z,52.08
2022-08-14T00:32:56.450Z,52.67
2022-08-14T00:34:56.611Z,52.87
2022-08-14T00:37:23.556Z,52.92
2022-08-14T00:39:51.144Z,52.17
2022-08-14T00:42:55.194Z,51.92
2022-08-14T00:45:13.851Z,52.37
2022-08-14T00:47:43.284Z,52.00
2022-08-14T00:50:17.668Z,52.21
2022-08-14T00:52:51.010Z,51.99
2022-08-14T00:55:20.057Z,51.83
2022-08-14T00:58:07.681Z,52.19
2022-08-14T01:00:43.113Z,51.92
2022-08-14T01:03:20.230Z,51.91
2022-08-14T01:05:52.046Z,52.34
2022-08-14T01:08:51.978Z,52.48
2022-08-14T01:11:10.152Z,52.08
2022-08-14T01:13:42.638Z,52.21
2022-08-14T01:16:15.006Z,51.86
2022-08-14T01:19:02.391Z,52.14
2022-08-14T01:21:46.832Z,51.86
2022-08-14T01:24:15.509Z,52.12
2022-08-14T01:26:55.900Z,51.64
2022-08-14T01:29:58.128Z,52.21
2022-08-14T01:32:10.689Z,51.81
2022-08-14T01:35:21.071Z,51.83
2022-08-14T01:37:25.553Z,51.96
2022-08-14T01:39:54.511Z,51.43
2022-08-14T01:42:31.340Z,51.81
2022-08-14T01:44:59.247Z,51.66
2022-08-14T01:47:27.368Z,51.68
2022-08-14T01:50:06.375Z,52.48
2022-08-14T01:52:59.127Z,51.81
2022-08-14T01:55:30.570Z,51.31
2022-08-14T01:58:01.787Z,51.01
2022-08-14T02:00:47.868Z,51.64
2022-08-14T02:03:16.196Z,51.64
2022-08-14T02:05:43.541Z,51.25
2022-08-14T02:08:10.784Z,51.44
2022-08-14T02:10:47.118Z,51.14
2022-08-14T02:13:17.314Z,50.75
2022-08-14T02:15:45.760Z,50.85
2022-08-14T02:18:16.277Z,51.20
2022-08-14T02:20:45.383Z,50.57
2022-08-14T02:23:14.373Z,51.15
2022-08-14T02:25:44.220Z,50.88
2022-08-14T02:28:56.069Z,50.98
2022-08-14T02:31:09.091Z,50.84
2022-08-14T02:33:39.092Z,51.86
2022-08-14T02:37:04.654Z,51.61
2022-08-14T02:38:53.841Z,52.34
2022-08-14T02:41:20.703Z,51.63
2022-08-14T02:43:48.465Z,51.85
2022-08-14T02:46:20.436Z,51.70
2022-08-14T02:49:03.950Z,52.06
2022-08-14T02:51:34.287Z,51.61
2022-08-14T02:54:01.881Z,51.24
2022-08-14T02:57:16.013Z,51.92
2022-08-14T02:59:18.830Z,51.90
2022-08-14T03:01:50.954Z,51.71
2022-08-14T03:04:22.528Z,51.80
2022-08-14T03:07:05.971Z,51.71
2022-08-14T03:10:25.370Z,51.62
2022-08-14T03:12:32.084Z,52.04
2022-08-14T03:15:09.130Z,53.83
2022-08-14T03:17:56.160Z,52.20
2022-08-14T03:20:23.747Z,52.18
2022-08-14T03:22:52.529Z,51.58
2022-08-14T03:25:22.154Z,51.49
2022-08-14T03:27:59.130Z,50.65
2022-08-14T03:30:39.554Z,50.89
2022-08-14T03:33:11.993Z,51.33
2022-08-14T03:36:05.413Z,51.74
2022-08-14T03:39:12.539Z,50.78
2022-08-14T03:41:23.293Z,50.64
2022-08-14T03:44:01.481Z,51.35
2022-08-14T03:46:52.062Z,50.65
2022-08-14T03:49:29.285Z,50.94
2022-08-14T03:52:00.671Z,51.54
2022-08-14T03:54:28.491Z,51.45
2022-08-14T03:57:02.354Z,51.63
2022-08-14T03:59:33.242Z,51.84
2022-08-14T04:02:02.209Z,51.63
2022-08-14T04:04:31.973Z,51.22
2022-08-14T04:07:00.868Z,51.99
2022-08-14T04:09:29.413Z,51.41
2022-08-14T04:11:58.232Z,51.66
2022-08-14T04:14:26.664Z,51.30
2022-08-14T04:16:53.519Z,52.10
2022-08-14T04:19:24.088Z,51.51
2022-08-14T04:22:02.282Z,51.91
2022-08-14T04:24:37.992Z,51.63
2022-08-14T04:27:13.421Z,51.77
2022-08-14T04:29:45.368Z,51.61
2022-08-14T04:33:01.074Z,52.10
2022-08-14T04:35:00.993Z,51.86
2022-08-14T04:40:40.525Z,51.47
2022-08-14T04:43:38.774Z,51.62
2022-08-14T04:46:55.789Z,51.98
2022-08-14T04:49:08.108Z,51.37
2022-08-14T04:51:37.441Z,50.65
2022-08-14T04:54:22.627Z,50.12
2022-08-14T04:56:51.383Z,50.58
2022-08-14T04:59:22.254Z,50.60
2022-08-14T05:01:53.882Z,50.94
2022-08-14T05:04:25.107Z,50.18
2022-08-14T05:06:55.391Z,50.52
2022-08-14T05:09:28.700Z,50.18
2022-08-14T05:11:56.450Z,50.74
2022-08-14T05:14:53.611Z,51.25
2022-08-14T05:17:32.053Z,51.55
2022-08-14T05:21:10.799Z,51.09
2022-08-14T05:22:59.815Z,50.91
2022-08-14T05:25:31.004Z,50.70
2022-08-14T05:28:19.309Z,50.67
2022-08-14T05:30:59.870Z,50.77
2022-08-14T05:33:28.603Z,50.51
2022-08-14T05:36:01.135Z,50.79
2022-08-14T05:38:35.317Z,50.72
2022-08-14T05:41:21.899Z,51.09
2022-08-14T05:43:49.383Z,51.15
2022-08-14T05:46:18.770Z,50.90
2022-08-14T05:48:55.201Z,50.25
2022-08-14T05:51:26.224Z,49.76
2022-08-14T05:54:09.972Z,49.53
2022-08-14T05:56:40.203Z,49.57
2022-08-14T05:59:07.535Z,49.69
2022-08-14T06:01:38.027Z,49.54
2022-08-14T06:04:05.177Z,50.06
2022-08-14T06:06:38.009Z,50.54
2022-08-14T06:09:09.799Z,50.80
2022-08-14T06:11:37.965Z,51.53
2022-08-14T06:14:06.614Z,51.13
2022-08-14T06:16:39.549Z,51.55
2022-08-14T06:19:07.373Z,52.08
2022-08-14T06:21:42.408Z,51.87
2022-08-14T06:24:10.421Z,51.21
2022-08-14T06:26:51.958Z,51.77
2022-08-14T06:29:24.049Z,50.83
2022-08-14T06:31:54.498Z,51.28
2022-08-14T06:35:09.809Z,51.14
2022-08-14T06:37:16.839Z,51.28
2022-08-14T06:39:44.303Z,51.71
2022-08-14T06:42:31.310Z,51.54
2022-08-14T06:44:58.453Z,51.45
2022-08-14T06:47:25.343Z,51.88
2022-08-14T06:49:57.702Z,51.10
2022-08-14T06:52:25.412Z,50.97
2022-08-14T06:54:52.352Z,51.35
2022-08-14T06:57:20.700Z,51.15
2022-08-14T06:59:49.934Z,51.08
2022-08-14T07:02:52.716Z,50.72
2022-08-14T07:05:38.812Z,50.61
2022-08-14T07:08:26.495Z,50.41
2022-08-14T07:11:04.107Z,50.62
2022-08-14T07:13:31.343Z,50.71
2022-08-14T07:16:05.370Z,50.87
2022-08-14T07:18:35.190Z,51.55
2022-08-14T07:21:06.018Z,51.63
2022-08-14T07:23:39.926Z,50.86
2022-08-14T07:26:08.243Z,51.23
2022-08-14T07:28:43.007Z,50.49
2022-08-14T07:31:12.575Z,50.94
2022-08-14T07:33:49.935Z,50.97
2022-08-14T07:36:26.922Z,50.92
2022-08-14T07:38:58.781Z,50.39
2022-08-14T07:41:31.399Z,50.27
2022-08-14T07:44:33.084Z,51.21
2022-08-14T07:46:49.722Z,50.98
2022-08-14T07:49:17.769Z,50.47
2022-08-14T07:51:45.839Z,50.42
2022-08-14T07:54:23.268Z,49.93
2022-08-14T07:57:06.530Z,50.22
2022-08-14T07:59:44.699Z,50.09
2022-08-14T08:02:19.688Z,49.89
2022-08-14T08:04:58.980Z,49.56
2022-08-14T08:07:31.769Z,50.27
2022-08-14T08:10:02.405Z,50.24
2022-08-14T08:12:32.347Z,49.95
2022-08-14T08:15:05.664Z,49.67
2022-08-14T08:17:38.608Z,49.81
2022-08-14T08:20:15.752Z,49.96
2022-08-14T08:22:47.831Z,49.35
2022-08-14T08:25:18.031Z,48.78
2022-08-14T08:28:22.409Z,47.78
2022-08-14T08:30:56.488Z,48.01
2022-08-14T08:33:31.921Z,47.70
2022-08-14T08:36:01.127Z,47.72
2022-08-14T08:39:18.838Z,46.47
2022-08-14T08:41:15.858Z,46.50
2022-08-14T08:43:47.194Z,46.32
2022-08-14T08:46:21.385Z,46.28
2022-08-14T08:51:31.202Z,45.40
2022-08-14T08:54:01.290Z,45.84
2022-08-14T08:56:42.915Z,45.99
2022-08-14T08:59:22.768Z,47.35
2022-08-14T09:02:00.609Z,47.58
2022-08-14T09:04:29.283Z,46.27
2022-08-14T09:07:09.270Z,46.85
2022-08-14T09:09:59.364Z,47.69
2022-08-14T09:12:33.107Z,45.84
2022-08-14T09:15:02.056Z,46.14
2022-08-14T09:17:29.159Z,46.97
2022-08-14T09:19:57.080Z,46.68
2022-08-14T09:22:36.203Z,47.04
2022-08-14T09:25:16.212Z,47.17
2022-08-14T09:27:43.813Z,47.17
2022-08-14T09:30:31.224Z,46.61
2022-08-14T09:33:12.860Z,46.01
2022-08-14T09:35:45.960Z,47.39
2022-08-14T09:38:34.806Z,45.64
2022-08-14T09:41:13.611Z,46.37
2022-08-14T09:44:06.887Z,45.01
2022-08-14T09:46:34.727Z,46.30
2022-08-14T09:49:06.708Z,45.48
2022-08-14T09:51:51.617Z,45.73
2022-08-14T09:54:43.479Z,45.15
2022-08-14T09:57:14.131Z,43.99
2022-08-14T09:59:46.476Z,44.45
2022-08-14T10:02:31.978Z,43.33
2022-08-14T10:05:10.574Z,44.23
2022-08-14T10:07:50.649Z,43.44
2022-08-14T10:10:34.700Z,44.56
2022-08-14T10:13:03.371Z,43.96
2022-08-14T10:15:37.140Z,43.12
2022-08-14T10:18:17.320Z,42.66
2022-08-14T10:21:00.734Z,44.33
2022-08-14T10:23:43.507Z,43.62
2022-08-14T10:26:11.932Z,42.88
2022-08-14T10:29:18.373Z,41.98
2022-08-14T10:31:44.934Z,41.71
2022-08-14T10:34:19.055Z,41.62
2022-08-14T10:36:50.123Z,41.55
2022-08-14T10:39:26.046Z,41.56
2022-08-14T10:42:16.513Z,41.66
2022-08-14T10:44:49.187Z,42.36
2022-08-14T10:47:40.820Z,42.65
2022-08-14T10:50:07.802Z,43.25
2022-08-14T10:52:43.223Z,42.15
2022-08-14T10:55:16.319Z,42.46
2022-08-14T10:57:54.885Z,41.16
2022-08-14T11:00:30.365Z,41.81
2022-08-14T11:03:13.296Z,40.09
2022-08-14T11:05:55.631Z,40.14
2022-08-14T11:08:33.106Z,40.84
2022-08-14T11:11:05.554Z,40.76
2022-08-14T11:13:33.645Z,40.62
2022-08-14T11:16:02.288Z,41.08
2022-08-14T11:18:36.101Z,40.10
2022-08-14T11:21:09.477Z,39.35
2022-08-14T11:23:43.812Z,40.10
2022-08-14T11:26:13.544Z,40.05
2022-08-14T11:28:47.381Z,39.91
2022-08-14T11:31:20.050Z,39.41
2022-08-14T11:33:57.629Z,39.14
2022-08-14T11:37:02.478Z,39.61
2022-08-14T11:39:34.709Z,40.39
2022-08-14T11:42:56.328Z,39.13
2022-08-14T11:45:04.298Z,38.82
2022-08-14T11:47:43.968Z,38.97
2022-08-14T11:50:36.172Z,38.43
2022-08-14T11:53:05.939Z,38.10
2022-08-14T11:55:39.726Z,38.72
2022-08-14T11:58:12.201Z,38.77
2022-08-14T12:00:53.934Z,38.69
2022-08-14T12:03:37.325Z,39.25
2022-08-14T12:06:28.682Z,38.12
2022-08-14T12:09:00.329Z,38.84
2022-08-14T12:11:43.302Z,38.85
2022-08-14T12:14:13.287Z,38.47
2022-08-14T12:17:11.783Z,39.58
2022-08-14T12:19:46.242Z,38.33
2022-08-14T12:22:30.376Z,39.46
2022-08-14T12:24:57.517Z,39.04
2022-08-14T12:27:52.753Z,38.87
2022-08-14T12:30:39.812Z,38.09
2022-08-14T12:33:30.518Z,37.92
2022-08-14T12:36:04.212Z,37.99
2022-08-14T12:38:44.215Z,37.79
2022-08-14T12:41:21.628Z,39.81
2022-08-14T12:43:56.798Z,41.98
2022-08-14T12:46:31.683Z,42.52
2022-08-14T12:49:02.387Z,41.78
2022-08-14T12:51:30.925Z,42.08
2022-08-14T12:54:00.099Z,42.77
2022-08-14T12:56:34.014Z,41.27
2022-08-14T12:59:02.845Z,42.11
2022-08-14T13:02:00.213Z,42.78
2022-08-14T13:04:21.619Z,44.26
2022-08-14T13:06:51.277Z,45.18
2022-08-14T13:09:19.577Z,45.41
2022-08-14T13:11:59.193Z,45.12
2022-08-14T13:14:38.521Z,46.48
2022-08-14T13:17:05.557Z,46.26
2022-08-14T13:19:40.518Z,46.46
2022-08-14T13:22:10.148Z,47.12
2022-08-14T13:24:47.749Z,47.03
2022-08-14T13:27:14.959Z,47.80
2022-08-14T13:29:47.516Z,48.41
2022-08-14T13:32:16.287Z,49.65
2022-08-14T13:34:45.966Z,47.65
2022-08-14T13:37:15.708Z,46.74
2022-08-14T13:39:57.303Z,45.51
2022-08-14T13:42:30.889Z,45.17
2022-08-14T13:45:01.215Z,44.44
2022-08-14T13:47:30.284Z,44.36
2022-08-14T13:50:02.771Z,44.33
2022-08-14T13:52:52.613Z,44.64
2022-08-14T13:55:28.046Z,44.55
2022-08-14T13:58:04.417Z,44.44
2022-08-14T14:00:53.609Z,45.22
2022-08-14T14:03:24.451Z,47.15
2022-08-14T14:05:54.258Z,47.52
2022-08-14T14:08:45.712Z,47.27
2022-08-14T14:11:14.237Z,47.92
2022-08-14T14:13:45.712Z,47.62
2022-08-14T14:16:26.628Z,46.26
2022-08-14T14:19:09.606Z,46.06
2022-08-14T14:21:38.083Z,46.07
2022-08-14T14:24:08.243Z,47.57
2022-08-14T14:26:47.871Z,47.63
2022-08-14T14:29:23.989Z,49.63
2022-08-14T14:31:54.067Z,48.82
2022-08-14T14:34:29.601Z,49.46
2022-08-14T14:37:04.442Z,49.46
2022-08-14T14:39:38.126Z,50.73
2022-08-14T14:43:10.853Z,49.82
2022-08-14T14:45:39.777Z,49.41
2022-08-14T14:48:09.260Z,48.60
2022-08-14T14:50:40.690Z,48.29
2022-08-14T14:53:13.042Z,48.05
2022-08-14T14:56:47.854Z,47.59
2022-08-14T14:58:30.929Z,48.82
2022-08-14T15:01:04.418Z,48.58
2022-08-14T15:03:38.445Z,48.28
2022-08-14T15:06:06.782Z,46.66
2022-08-14T15:08:56.578Z,46.42
2022-08-14T15:11:26.287Z,46.56
2022-08-14T15:13:57.953Z,46.86
2022-08-14T15:16:24.912Z,46.32
2022-08-14T15:18:52.865Z,46.76
2022-08-14T15:21:19.816Z,46.83
2022-08-14T15:23:48.145Z,45.77
2022-08-14T15:26:30.976Z,46.20
2022-08-14T15:29:05.208Z,46.02
2022-08-14T15:31:36.605Z,45.66
2022-08-14T15:34:44.794Z,45.11
2022-08-14T15:36:59.691Z,44.84
2022-08-14T15:39:29.642Z,44.67
2022-08-14T15:42:02.014Z,43.95
2022-08-14T15:44:34.216Z,44.12
2022-08-14T15:47:01.702Z,43.51
2022-08-14T15:49:33.133Z,44.02
2022-08-14T15:52:03.312Z,44.35
2022-08-14T15:54:31.771Z,45.14
2022-08-14T15:57:02.796Z,45.03
2022-08-14T15:59:50.131Z,45.45
2022-08-14T16:02:24.536Z,45.77
2022-08-14T16:04:55.369Z,46.13
2022-08-14T16:07:25.283Z,45.67
2022-08-14T16:10:18.320Z,45.85
2022-08-14T16:12:46.666Z,46.09
2022-08-14T16:15:16.748Z,46.06
2022-08-14T16:17:45.501Z,45.72
2022-08-14T16:20:13.114Z,45.32
2022-08-14T16:23:06.463Z,45.17
2022-08-14T16:25:40.620Z,45.89
2022-08-14T16:28:08.054Z,45.70
2022-08-14T16:30:35.487Z,45.98
2022-08-14T16:33:05.834Z,44.92
2022-08-14T16:35:42.265Z,44.84
2022-08-14T16:38:46.156Z,43.84
2022-08-14T16:41:18.255Z,43.83
2022-08-14T16:44:04.726Z,43.02
2022-08-14T16:46:43.035Z,43.04
2022-08-14T16:49:13.847Z,42.88
2022-08-14T16:51:43.640Z,43.00
2022-08-14T16:54:33.688Z,42.77
2022-08-14T16:57:23.031Z,42.73
2022-08-14T16:59:57.759Z,43.01
2022-08-14T17:02:41.792Z,42.64
2022-08-14T17:05:24.891Z,42.01
2022-08-14T17:08:33.428Z,42.40
2022-08-14T17:11:09.760Z,41.83
2022-08-14T17:13:57.784Z,42.29
2022-08-14T17:16:26.265Z,43.08
2022-08-14T17:19:01.011Z,43.82
2022-08-14T17:21:37.276Z,43.82
2022-08-14T17:24:55.881Z,43.29
2022-08-14T17:26:59.980Z,42.82
2022-08-14T17:29:33.735Z,43.43
2022-08-14T17:32:19.302Z,43.95
2022-08-14T17:34:52.098Z,43.67
2022-08-14T17:37:36.373Z,43.30
2022-08-14T17:40:15.972Z,43.39
2022-08-14T17:42:51.809Z,44.08
2022-08-14T17:45:27.015Z,43.91
2022-08-14T17:47:59.196Z,43.97
2022-08-14T17:50:59.782Z,44.04
2022-08-14T17:53:30.302Z,44.66
2022-08-14T17:56:02.381Z,44.54
2022-08-14T17:58:42.153Z,44.86
2022-08-14T18:01:13.598Z,45.27
2022-08-14T18:03:50.369Z,44.93
2022-08-14T18:06:38.191Z,44.82
2022-08-14T18:09:24.750Z,44.83
2022-08-14T18:11:55.286Z,44.62
2022-08-14T18:14:32.584Z,43.95
2022-08-14T18:17:11.283Z,44.32
2022-08-14T18:19:41.513Z,44.83
2022-08-14T18:22:31.002Z,45.63
2022-08-14T18:24:57.754Z,45.85
2022-08-14T18:27:34.885Z,45.68
2022-08-14T18:30:33.325Z,46.17
2022-08-14T18:32:54.874Z,46.54
2022-08-14T18:35:45.925Z,46.30
2022-08-14T18:38:55.335Z,46.42
2022-08-14T18:41:37.693Z,46.24
2022-08-14T18:44:10.690Z,46.09
2022-08-14T18:47:15.285Z,45.75
2022-08-14T18:49:55.522Z,45.90
2022-08-14T18:52:34.473Z,45.58
2022-08-14T18:55:20.909Z,45.41
2022-08-14T18:58:26.653Z,45.36
2022-08-14T19:00:58.719Z,45.29
2022-08-14T19:03:36.285Z,46.01
2022-08-14T19:06:08.988Z,45.90
2022-08-14T19:08:39.625Z,45.79
2022-08-14T19:11:31.977Z,45.68
2022-08-14T19:14:00.018Z,46.17
2022-08-14T19:16:37.839Z,46.45
2022-08-14T19:19:12.325Z,46.79
2022-08-14T19:21:45.299Z,46.66
2022-08-14T19:24:30.088Z,46.61
2022-08-14T19:27:23.637Z,46.47
2022-08-14T19:30:20.431Z,46.49
2022-08-14T19:32:57.440Z,46.28
2022-08-14T19:35:48.783Z,46.21
2022-08-14T19:38:46.359Z,45.72
2022-08-14T19:41:19.881Z,46.11
2022-08-14T19:43:55.624Z,46.99
2022-08-14T19:46:37.736Z,46.78
2022-08-14T19:49:14.778Z,46.23
2022-08-14T19:51:50.686Z,46.83
2022-08-14T19:54:18.799Z,45.82
2022-08-14T19:56:46.182Z,45.35
2022-08-14T19:59:23.587Z,45.56
2022-08-14T20:01:53.135Z,45.92
2022-08-14T20:04:47.054Z,46.57
2022-08-14T20:07:59.263Z,47.01
2022-08-14T20:11:06.628Z,45.90
2022-08-14T20:13:25.266Z,45.59
2022-08-14T20:16:06.775Z,45.97
2022-08-14T20:18:50.199Z,46.11
2022-08-14T20:21:18.562Z,45.69
2022-08-14T20:23:48.168Z,47.09
2022-08-14T20:26:31.366Z,46.46
2022-08-14T20:29:05.334Z,45.95
2022-08-14T20:31:36.536Z,46.10
2022-08-14T20:34:07.895Z,46.54
2022-08-14T20:36:46.429Z,46.57
2022-08-14T20:39:15.242Z,47.38
2022-08-14T20:41:51.074Z,46.49
2022-08-14T20:44:41.530Z,46.97
2022-08-14T20:47:15.346Z,47.00
2022-08-14T20:49:42.399Z,47.86
2022-08-14T20:52:18.863Z,48.70
2022-08-14T20:54:51.511Z,50.65
2022-08-14T20:57:19.380Z,49.27
2022-08-14T20:59:52.971Z,47.61
2022-08-14T21:02:46.610Z,47.44
2022-08-14T21:05:21.345Z,47.76
2022-08-14T21:07:51.067Z,47.61
2022-08-14T21:10:35.755Z,48.45
2022-08-14T21:14:18.844Z,50.31
2022-08-14T21:15:58.159Z,50.32
2022-08-14T21:18:34.363Z,50.07
2022-08-14T21:21:07.926Z,50.18
2022-08-14T21:23:54.492Z,49.49
2022-08-14T21:26:50.940Z,48.99
2022-08-14T21:29:14.532Z,48.51
2022-08-14T21:31:42.746Z,48.09
2022-08-14T21:34:27.226Z,49.89
2022-08-14T21:37:08.780Z,49.37
2022-08-14T21:39:36.225Z,49.11
2022-08-14T21:42:05.681Z,50.03
2022-08-14T21:44:43.236Z,49.46
2022-08-14T21:47:13.560Z,49.19
2022-08-14T21:49:46.198Z,49.41
2022-08-14T21:52:49.073Z,49.73
2022-08-14T21:55:09.598Z,49.92
2022-08-14T21:58:03.950Z,50.14
2022-08-14T22:00:36.539Z,50.14
2022-08-14T22:03:10.727Z,49.05
2022-08-14T22:05:39.942Z,48.68
2022-08-14T22:08:12.470Z,49.66
2022-08-14T22:10:44.795Z,48.71
2022-08-14T22:13:16.797Z,48.22
2022-08-14T22:15:49.989Z,48.89
2022-08-14T22:18:21.183Z,48.54
2022-08-14T22:20:53.934Z,48.30
2022-08-14T22:23:24.837Z,48.02
2022-08-14T22:25:54.728Z,47.84
2022-08-14T22:28:32.678Z,49.14
2022-08-14T22:31:10.270Z,48.47
2022-08-14T22:33:39.757Z,48.04
2022-08-14T22:36:27.584Z,49.08
2022-08-14T22:39:01.295Z,49.28
2022-08-14T22:41:32.779Z,48.70
2022-08-14T22:44:08.664Z,47.96
2022-08-14T22:46:43.450Z,48.71
2022-08-14T22:49:15.467Z,49.87
2022-08-14T22:52:04.422Z,49.19
2022-08-14T22:54:53.803Z,49.31
2022-08-14T22:57:22.522Z,49.23
2022-08-14T22:59:50.203Z,49.95
2022-08-14T23:02:30.287Z,48.79
2022-08-14T23:04:59.289Z,49.31
2022-08-14T23:08:59.554Z,48.88
2022-08-14T23:10:31.604Z,48.62
2022-08-14T23:13:03.665Z,48.65
2022-08-14T23:15:30.706Z,49.20
2022-08-14T23:17:58.496Z,48.78
2022-08-14T23:20:29.582Z,49.22
2022-08-14T23:22:57.234Z,50.47
2022-08-14T23:25:56.666Z,48.42
2022-08-14T23:28:34.309Z,49.21
2022-08-14T23:31:08.472Z,49.18
2022-08-14T23:33:46.163Z,49.54
2022-08-14T23:36:32.015Z,50.22
2022-08-14T23:39:10.171Z,50.51
2022-08-14T23:41:46.452Z,50.86
2022-08-14T23:44:22.558Z,50.45
2022-08-14T23:46:57.182Z,50.51
2022-08-14T23:49:28.739Z,51.04
2022-08-14T23:52:50.942Z,51.83
2022-08-14T23:55:04.785Z,51.73
2022-08-14T23:57:31.542Z,52.32
2022-08-14T23:59:59.856Z,50.59
